KNSI

San Nicolas Island Nolf Airport

San Nicolas Island, California, USA
METAR KNSI 171657Z 35004KT 10SM FEW004 21/13 A3009 RMK AO2 SLP184 T02110133 $
Observed Flight Rules
Oct-17 @ 16:57 UTC (an hour ago) Visual Flight Rules
Wind Visibility Clouds
350° at 4 knots 10 miles
  • Few at 400' AGL
Temperatures Readings
Current 21°C / 70°F
Dewpoint 13°C / 55°F
Humidity 60%
Altimeter 30.09" Hg
Pressure 1018.4 hPa
Elevation 154
METAR KNSI 171657Z 35004KT 10SM FEW004 21/13 A3009 RMK AO2 SLP184 T02110133 $
Observed Flight Rules
Oct-17 @ 16:57 UTC
(an hour ago)
VFR
Wind Visibility
350° at 4 knots 10 miles
Clouds
  • Few at 400' AGL
Temperature Dewpoint
21°C / 70°F 13°C / 55°F
Humidity Altimeter Pressure
60% 30.09" Hg 1018.4 hPa